sensor_id;sensor_type;location;lat;lon;timestamp;P1;durP1;ratioP1;P2;durP2;ratioP2
18360;SDS011;9308;48.550;9.108;2022-09-03T00:00:21;3.40;;;3.17;;
18360;SDS011;9308;48.550;9.108;2022-09-03T00:03:06;3.00;;;2.80;;
18360;SDS011;9308;48.550;9.108;2022-09-03T00:05:42;4.13;;;2.50;;
18360;SDS011;9308;48.550;9.108;2022-09-03T00:08:32;2.90;;;2.70;;
18360;SDS011;9308;48.550;9.108;2022-09-03T00:11:19;2.90;;;2.70;;
18360;SDS011;9308;48.550;9.108;2022-09-03T00:13:50;3.03;;;2.73;;
18360;SDS011;9308;48.550;9.108;2022-09-03T00:16:21;2.83;;;2.73;;
18360;SDS011;9308;48.550;9.108;2022-09-03T00:18:55;3.00;;;2.80;;
18360;SDS011;9308;48.550;9.108;2022-09-03T00:24:02;3.10;;;2.90;;
18360;SDS011;9308;48.550;9.108;2022-09-03T00:26:32;3.10;;;2.90;;
18360;SDS011;9308;48.550;9.108;2022-09-03T00:29:06;2.83;;;2.63;;
18360;SDS011;9308;48.550;9.108;2022-09-03T00:31:43;3.03;;;2.83;;
18360;SDS011;9308;48.550;9.108;2022-09-03T00:36:51;8.70;;;3.17;;
18360;SDS011;9308;48.550;9.108;2022-09-03T00:39:18;4.17;;;3.77;;
18360;SDS011;9308;48.550;9.108;2022-09-03T00:53:11;2.83;;;2.63;;
18360;SDS011;9308;48.550;9.108;2022-09-03T00:55:51;3.27;;;3.07;;
18360;SDS011;9308;48.550;9.108;2022-09-03T00:58:45;3.07;;;2.60;;
18360;SDS011;9308;48.550;9.108;2022-09-03T01:01:29;3.37;;;3.10;;
18360;SDS011;9308;48.550;9.108;2022-09-03T01:04:28;3.47;;;3.17;;
18360;SDS011;9308;48.550;9.108;2022-09-03T01:10:05;3.30;;;3.10;;
18360;SDS011;9308;48.550;9.108;2022-09-03T01:12:59;3.37;;;3.07;;
18360;SDS011;9308;48.550;9.108;2022-09-03T01:15:57;2.87;;;2.77;;
18360;SDS011;9308;48.550;9.108;2022-09-03T01:18:55;3.83;;;3.53;;
18360;SDS011;9308;48.550;9.108;2022-09-03T01:21:40;3.67;;;3.40;;
18360;SDS011;9308;48.550;9.108;2022-09-03T01:27:46;3.87;;;3.57;;
18360;SDS011;9308;48.550;9.108;2022-09-03T01:30:36;4.00;;;3.60;;
18360;SDS011;9308;48.550;9.108;2022-09-03T01:33:49;4.30;;;3.80;;
18360;SDS011;9308;48.550;9.108;2022-09-03T01:36:28;3.90;;;3.60;;
18360;SDS011;9308;48.550;9.108;2022-09-03T01:39:21;3.50;;;3.30;;
18360;SDS011;9308;48.550;9.108;2022-09-03T01:42:10;3.83;;;3.53;;
18360;SDS011;9308;48.550;9.108;2022-09-03T01:47:17;3.83;;;3.53;;
18360;SDS011;9308;48.550;9.108;2022-09-03T01:52:38;4.10;;;3.80;;
18360;SDS011;9308;48.550;9.108;2022-09-03T01:55:24;3.60;;;3.30;;
18360;SDS011;9308;48.550;9.108;2022-09-03T02:00:56;3.80;;;3.60;;
18360;SDS011;9308;48.550;9.108;2022-09-03T02:03:39;4.33;;;4.03;;
18360;SDS011;9308;48.550;9.108;2022-09-03T02:06:09;4.20;;;3.83;;
18360;SDS011;9308;48.550;9.108;2022-09-03T02:08:35;4.23;;;4.00;;
18360;SDS011;9308;48.550;9.108;2022-09-03T02:11:02;4.27;;;3.50;;
18360;SDS011;9308;48.550;9.108;2022-09-03T02:13:33;3.77;;;3.57;;
18360;SDS011;9308;48.550;9.108;2022-09-03T02:16:05;4.63;;;4.20;;
18360;SDS011;9308;48.550;9.108;2022-09-03T02:18:43;4.17;;;3.97;;
18360;SDS011;9308;48.550;9.108;2022-09-03T02:21:12;4.70;;;4.40;;
18360;SDS011;9308;48.550;9.108;2022-09-03T02:23:44;4.40;;;4.10;;
18360;SDS011;9308;48.550;9.108;2022-09-03T02:26:10;4.87;;;4.47;;
18360;SDS011;9308;48.550;9.108;2022-09-03T02:28:37;5.00;;;4.67;;
18360;SDS011;9308;48.550;9.108;2022-09-03T02:31:03;4.57;;;4.27;;
18360;SDS011;9308;48.550;9.108;2022-09-03T02:33:30;4.67;;;4.37;;
18360;SDS011;9308;48.550;9.108;2022-09-03T02:35:59;4.30;;;4.03;;
18360;SDS011;9308;48.550;9.108;2022-09-03T02:38:25;4.83;;;4.43;;
18360;SDS011;9308;48.550;9.108;2022-09-03T02:40:51;4.87;;;4.57;;
18360;SDS011;9308;48.550;9.108;2022-09-03T02:43:21;5.60;;;4.50;;
18360;SDS011;9308;48.550;9.108;2022-09-03T02:45:51;5.00;;;4.60;;
18360;SDS011;9308;48.550;9.108;2022-09-03T02:48:21;4.50;;;4.20;;
18360;SDS011;9308;48.550;9.108;2022-09-03T02:50:48;4.80;;;4.40;;
18360;SDS011;9308;48.550;9.108;2022-09-03T02:53:13;5.17;;;4.67;;
18360;SDS011;9308;48.550;9.108;2022-09-03T02:55:39;5.17;;;4.77;;
18360;SDS011;9308;48.550;9.108;2022-09-03T02:58:05;5.00;;;4.60;;
18360;SDS011;9308;48.550;9.108;2022-09-03T03:00:32;4.50;;;4.20;;
18360;SDS011;9308;48.550;9.108;2022-09-03T03:02:57;5.40;;;4.87;;
18360;SDS011;9308;48.550;9.108;2022-09-03T03:06:05;5.00;;;4.70;;
18360;SDS011;9308;48.550;9.108;2022-09-03T03:08:14;5.00;;;4.70;;
18360;SDS011;9308;48.550;9.108;2022-09-03T03:10:41;5.87;;;5.37;;
18360;SDS011;9308;48.550;9.108;2022-09-03T03:13:09;4.77;;;4.43;;
18360;SDS011;9308;48.550;9.108;2022-09-03T03:15:35;4.87;;;4.57;;
18360;SDS011;9308;48.550;9.108;2022-09-03T03:18:00;4.90;;;4.50;;
18360;SDS011;9308;48.550;9.108;2022-09-03T03:20:26;4.77;;;4.47;;
18360;SDS011;9308;48.550;9.108;2022-09-03T03:22:51;5.67;;;5.10;;
18360;SDS011;9308;48.550;9.108;2022-09-03T03:25:17;4.50;;;4.30;;
18360;SDS011;9308;48.550;9.108;2022-09-03T03:27:42;5.70;;;5.30;;
18360;SDS011;9308;48.550;9.108;2022-09-03T03:30:08;4.77;;;4.47;;
18360;SDS011;9308;48.550;9.108;2022-09-03T03:32:35;4.93;;;4.60;;
18360;SDS011;9308;48.550;9.108;2022-09-03T03:35:02;5.23;;;4.80;;
18360;SDS011;9308;48.550;9.108;2022-09-03T03:37:27;4.87;;;4.57;;
18360;SDS011;9308;48.550;9.108;2022-09-03T03:39:53;5.00;;;4.60;;
18360;SDS011;9308;48.550;9.108;2022-09-03T03:42:18;4.87;;;4.53;;
18360;SDS011;9308;48.550;9.108;2022-09-03T03:44:45;5.30;;;4.80;;
18360;SDS011;9308;48.550;9.108;2022-09-03T03:47:11;5.43;;;5.13;;
18360;SDS011;9308;48.550;9.108;2022-09-03T03:49:36;5.10;;;4.70;;
18360;SDS011;9308;48.550;9.108;2022-09-03T03:52:02;6.60;;;4.40;;
18360;SDS011;9308;48.550;9.108;2022-09-03T03:54:28;5.50;;;5.13;;
18360;SDS011;9308;48.550;9.108;2022-09-03T03:56:55;5.50;;;5.10;;
18360;SDS011;9308;48.550;9.108;2022-09-03T03:59:21;5.10;;;4.70;;
18360;SDS011;9308;48.550;9.108;2022-09-03T04:01:46;5.30;;;4.90;;
18360;SDS011;9308;48.550;9.108;2022-09-03T04:04:14;5.80;;;4.40;;
18360;SDS011;9308;48.550;9.108;2022-09-03T04:06:40;7.13;;;4.93;;
18360;SDS011;9308;48.550;9.108;2022-09-03T04:09:06;5.77;;;4.60;;
18360;SDS011;9308;48.550;9.108;2022-09-03T04:11:31;5.47;;;5.07;;
18360;SDS011;9308;48.550;9.108;2022-09-03T04:13:56;5.00;;;4.60;;
18360;SDS011;9308;48.550;9.108;2022-09-03T04:16:23;5.13;;;4.73;;
18360;SDS011;9308;48.550;9.108;2022-09-03T04:18:52;6.80;;;5.33;;
18360;SDS011;9308;48.550;9.108;2022-09-03T04:21:20;6.00;;;5.60;;
18360;SDS011;9308;48.550;9.108;2022-09-03T04:23:48;5.53;;;5.13;;
18360;SDS011;9308;48.550;9.108;2022-09-03T04:26:18;5.90;;;5.50;;
18360;SDS011;9308;48.550;9.108;2022-09-03T04:28:46;8.53;;;7.67;;
18360;SDS011;9308;48.550;9.108;2022-09-03T04:31:12;7.70;;;7.10;;
18360;SDS011;9308;48.550;9.108;2022-09-03T04:33:40;7.77;;;7.17;;
18360;SDS011;9308;48.550;9.108;2022-09-03T04:38:32;7.10;;;6.50;;
18360;SDS011;9308;48.550;9.108;2022-09-03T04:41:00;7.07;;;6.57;;
18360;SDS011;9308;48.550;9.108;2022-09-03T04:43:26;7.23;;;6.67;;
18360;SDS011;9308;48.550;9.108;2022-09-03T04:45:56;6.67;;;6.17;;
18360;SDS011;9308;48.550;9.108;2022-09-03T04:48:26;5.80;;;5.30;;
18360;SDS011;9308;48.550;9.108;2022-09-03T04:50:52;6.00;;;5.60;;
18360;SDS011;9308;48.550;9.108;2022-09-03T04:53:19;6.20;;;5.80;;
18360;SDS011;9308;48.550;9.108;2022-09-03T04:55:45;5.83;;;5.23;;
18360;SDS011;9308;48.550;9.108;2022-09-03T04:58:10;5.23;;;4.90;;
18360;SDS011;9308;48.550;9.108;2022-09-03T05:00:36;6.13;;;5.53;;
18360;SDS011;9308;48.550;9.108;2022-09-03T05:03:01;5.60;;;5.20;;
18360;SDS011;9308;48.550;9.108;2022-09-03T05:05:29;5.77;;;5.33;;
18360;SDS011;9308;48.550;9.108;2022-09-03T05:08:02;5.60;;;5.20;;
18360;SDS011;9308;48.550;9.108;2022-09-03T05:10:28;6.00;;;5.40;;
18360;SDS011;9308;48.550;9.108;2022-09-03T05:12:58;5.73;;;5.33;;
18360;SDS011;9308;48.550;9.108;2022-09-03T05:15:24;5.60;;;5.10;;
18360;SDS011;9308;48.550;9.108;2022-09-03T05:17:54;5.70;;;5.30;;
18360;SDS011;9308;48.550;9.108;2022-09-03T05:20:20;5.90;;;5.50;;
18360;SDS011;9308;48.550;9.108;2022-09-03T05:22:46;5.37;;;5.00;;
18360;SDS011;9308;48.550;9.108;2022-09-03T05:25:11;6.27;;;5.73;;
18360;SDS011;9308;48.550;9.108;2022-09-03T05:27:37;5.43;;;5.00;;
18360;SDS011;9308;48.550;9.108;2022-09-03T05:30:02;5.80;;;5.40;;
18360;SDS011;9308;48.550;9.108;2022-09-03T05:32:29;6.17;;;5.67;;
18360;SDS011;9308;48.550;9.108;2022-09-03T05:34:55;5.20;;;4.90;;
18360;SDS011;9308;48.550;9.108;2022-09-03T05:37:20;5.97;;;5.57;;
18360;SDS011;9308;48.550;9.108;2022-09-03T05:39:47;6.00;;;5.60;;
18360;SDS011;9308;48.550;9.108;2022-09-03T05:42:13;5.33;;;5.03;;
18360;SDS011;9308;48.550;9.108;2022-09-03T05:44:39;6.00;;;5.47;;
18360;SDS011;9308;48.550;9.108;2022-09-03T05:47:05;8.37;;;5.60;;
18360;SDS011;9308;48.550;9.108;2022-09-03T05:49:30;5.70;;;5.20;;
18360;SDS011;9308;48.550;9.108;2022-09-03T05:51:56;7.40;;;6.17;;
18360;SDS011;9308;48.550;9.108;2022-09-03T05:54:21;6.47;;;5.97;;
18360;SDS011;9308;48.550;9.108;2022-09-03T05:56:47;5.90;;;5.57;;
18360;SDS011;9308;48.550;9.108;2022-09-03T05:59:12;6.47;;;5.97;;
18360;SDS011;9308;48.550;9.108;2022-09-03T06:01:39;6.50;;;5.90;;
18360;SDS011;9308;48.550;9.108;2022-09-03T06:04:10;5.67;;;5.37;;
18360;SDS011;9308;48.550;9.108;2022-09-03T06:06:38;7.13;;;6.53;;
18360;SDS011;9308;48.550;9.108;2022-09-03T06:09:05;6.10;;;5.60;;
18360;SDS011;9308;48.550;9.108;2022-09-03T06:11:36;5.70;;;5.20;;
18360;SDS011;9308;48.550;9.108;2022-09-03T06:14:03;6.03;;;5.43;;
18360;SDS011;9308;48.550;9.108;2022-09-03T06:16:31;6.27;;;5.87;;
18360;SDS011;9308;48.550;9.108;2022-09-03T06:19:04;6.03;;;5.53;;
18360;SDS011;9308;48.550;9.108;2022-09-03T06:21:33;6.83;;;6.23;;
18360;SDS011;9308;48.550;9.108;2022-09-03T06:24:01;6.43;;;5.80;;
18360;SDS011;9308;48.550;9.108;2022-09-03T06:26:27;5.70;;;5.40;;
18360;SDS011;9308;48.550;9.108;2022-09-03T06:28:52;6.97;;;6.20;;
18360;SDS011;9308;48.550;9.108;2022-09-03T06:31:19;6.50;;;6.10;;
18360;SDS011;9308;48.550;9.108;2022-09-03T06:33:45;6.43;;;5.93;;
18360;SDS011;9308;48.550;9.108;2022-09-03T06:36:12;5.97;;;5.57;;
18360;SDS011;9308;48.550;9.108;2022-09-03T06:38:40;6.63;;;6.23;;
18360;SDS011;9308;48.550;9.108;2022-09-03T06:41:16;6.77;;;6.37;;
18360;SDS011;9308;48.550;9.108;2022-09-03T06:43:47;7.80;;;6.07;;
18360;SDS011;9308;48.550;9.108;2022-09-03T06:46:14;6.60;;;6.20;;
18360;SDS011;9308;48.550;9.108;2022-09-03T06:48:43;6.63;;;6.10;;
18360;SDS011;9308;48.550;9.108;2022-09-03T06:51:15;7.17;;;6.33;;
18360;SDS011;9308;48.550;9.108;2022-09-03T06:53:43;6.57;;;6.13;;
18360;SDS011;9308;48.550;9.108;2022-09-03T06:56:11;5.90;;;5.50;;
18360;SDS011;9308;48.550;9.108;2022-09-03T06:58:39;7.10;;;6.40;;
18360;SDS011;9308;48.550;9.108;2022-09-03T07:01:15;6.00;;;5.60;;
18360;SDS011;9308;48.550;9.108;2022-09-03T07:03:45;6.17;;;5.67;;
18360;SDS011;9308;48.550;9.108;2022-09-03T07:06:13;6.20;;;5.80;;
18360;SDS011;9308;48.550;9.108;2022-09-03T07:08:41;6.83;;;6.20;;
18360;SDS011;9308;48.550;9.108;2022-09-03T07:11:08;6.80;;;6.30;;
18360;SDS011;9308;48.550;9.108;2022-09-03T07:13:36;6.17;;;5.77;;
18360;SDS011;9308;48.550;9.108;2022-09-03T07:16:08;6.23;;;5.80;;
18360;SDS011;9308;48.550;9.108;2022-09-03T07:18:35;6.77;;;6.20;;
18360;SDS011;9308;48.550;9.108;2022-09-03T07:21:11;6.70;;;6.20;;
18360;SDS011;9308;48.550;9.108;2022-09-03T07:23:48;6.90;;;6.30;;
18360;SDS011;9308;48.550;9.108;2022-09-03T07:26:17;6.50;;;6.10;;
18360;SDS011;9308;48.550;9.108;2022-09-03T07:28:44;7.30;;;6.70;;
18360;SDS011;9308;48.550;9.108;2022-09-03T07:31:11;6.80;;;6.20;;
18360;SDS011;9308;48.550;9.108;2022-09-03T07:33:39;6.77;;;6.27;;
18360;SDS011;9308;48.550;9.108;2022-09-03T07:36:09;6.90;;;6.40;;
18360;SDS011;9308;48.550;9.108;2022-09-03T07:38:38;6.40;;;5.87;;
18360;SDS011;9308;48.550;9.108;2022-09-03T07:41:05;6.27;;;5.70;;
18360;SDS011;9308;48.550;9.108;2022-09-03T07:43:34;6.30;;;5.90;;
18360;SDS011;9308;48.550;9.108;2022-09-03T07:46:01;6.97;;;6.40;;
18360;SDS011;9308;48.550;9.108;2022-09-03T07:48:27;6.90;;;6.40;;
18360;SDS011;9308;48.550;9.108;2022-09-03T07:50:56;7.37;;;6.77;;
18360;SDS011;9308;48.550;9.108;2022-09-03T07:53:25;7.50;;;6.80;;
18360;SDS011;9308;48.550;9.108;2022-09-03T07:55:52;7.53;;;6.93;;
18360;SDS011;9308;48.550;9.108;2022-09-03T07:58:18;7.43;;;6.83;;
18360;SDS011;9308;48.550;9.108;2022-09-03T08:00:47;6.97;;;6.50;;
18360;SDS011;9308;48.550;9.108;2022-09-03T08:03:13;7.03;;;6.53;;
18360;SDS011;9308;48.550;9.108;2022-09-03T08:05:38;7.07;;;6.53;;
18360;SDS011;9308;48.550;9.108;2022-09-03T08:08:04;7.23;;;6.73;;
18360;SDS011;9308;48.550;9.108;2022-09-03T08:10:33;7.20;;;6.60;;
18360;SDS011;9308;48.550;9.108;2022-09-03T08:13:00;6.17;;;5.77;;
18360;SDS011;9308;48.550;9.108;2022-09-03T08:15:29;6.50;;;6.10;;
18360;SDS011;9308;48.550;9.108;2022-09-03T08:17:55;6.60;;;6.10;;
18360;SDS011;9308;48.550;9.108;2022-09-03T08:20:21;6.57;;;6.13;;
18360;SDS011;9308;48.550;9.108;2022-09-03T08:22:46;6.03;;;5.53;;
18360;SDS011;9308;48.550;9.108;2022-09-03T08:25:13;6.67;;;6.07;;
18360;SDS011;9308;48.550;9.108;2022-09-03T08:27:38;6.43;;;6.03;;
18360;SDS011;9308;48.550;9.108;2022-09-03T08:30:04;6.33;;;5.73;;
18360;SDS011;9308;48.550;9.108;2022-09-03T08:32:30;5.47;;;5.17;;
18360;SDS011;9308;48.550;9.108;2022-09-03T08:34:55;5.50;;;5.10;;
18360;SDS011;9308;48.550;9.108;2022-09-03T08:37:21;4.50;;;4.20;;
18360;SDS011;9308;48.550;9.108;2022-09-03T08:39:53;5.00;;;4.60;;
18360;SDS011;9308;48.550;9.108;2022-09-03T08:42:21;4.90;;;4.50;;
18360;SDS011;9308;48.550;9.108;2022-09-03T08:44:57;4.10;;;3.90;;
18360;SDS011;9308;48.550;9.108;2022-09-03T08:52:50;4.63;;;4.17;;
18360;SDS011;9308;48.550;9.108;2022-09-03T08:58:15;4.60;;;4.20;;
18360;SDS011;9308;48.550;9.108;2022-09-03T09:03:52;4.73;;;4.43;;
18360;SDS011;9308;48.550;9.108;2022-09-03T09:06:34;4.53;;;4.13;;
18360;SDS011;9308;48.550;9.108;2022-09-03T09:14:49;4.23;;;4.03;;
18360;SDS011;9308;48.550;9.108;2022-09-03T09:23:09;4.70;;;4.33;;
18360;SDS011;9308;48.550;9.108;2022-09-03T09:25:48;4.20;;;3.80;;
18360;SDS011;9308;48.550;9.108;2022-09-03T09:28:18;4.70;;;4.40;;
18360;SDS011;9308;48.550;9.108;2022-09-03T09:30:46;4.20;;;3.90;;
18360;SDS011;9308;48.550;9.108;2022-09-03T09:33:13;4.13;;;3.93;;
18360;SDS011;9308;48.550;9.108;2022-09-03T09:35:40;3.93;;;3.73;;
18360;SDS011;9308;48.550;9.108;2022-09-03T09:38:07;3.90;;;3.60;;
18360;SDS011;9308;48.550;9.108;2022-09-03T09:45:35;4.37;;;4.00;;
18360;SDS011;9308;48.550;9.108;2022-09-03T09:48:21;3.97;;;3.57;;
18360;SDS011;9308;48.550;9.108;2022-09-03T09:53:40;4.60;;;4.13;;
18360;SDS011;9308;48.550;9.108;2022-09-03T09:56:06;4.27;;;4.00;;
18360;SDS011;9308;48.550;9.108;2022-09-03T09:58:32;4.20;;;3.90;;
18360;SDS011;9308;48.550;9.108;2022-09-03T10:01:10;4.60;;;4.23;;
18360;SDS011;9308;48.550;9.108;2022-09-03T10:04:07;3.87;;;3.60;;
18360;SDS011;9308;48.550;9.108;2022-09-03T10:06:32;4.00;;;3.70;;
18360;SDS011;9308;48.550;9.108;2022-09-03T10:09:18;3.80;;;3.50;;
18360;SDS011;9308;48.550;9.108;2022-09-03T10:20:48;4.93;;;4.60;;
18360;SDS011;9308;48.550;9.108;2022-09-03T10:23:23;4.87;;;4.47;;
18360;SDS011;9308;48.550;9.108;2022-09-03T10:28:24;4.07;;;3.87;;
18360;SDS011;9308;48.550;9.108;2022-09-03T10:33:55;6.70;;;4.70;;
18360;SDS011;9308;48.550;9.108;2022-09-03T10:45:18;5.07;;;4.67;;
18360;SDS011;9308;48.550;9.108;2022-09-03T10:48:19;5.40;;;5.00;;
18360;SDS011;9308;48.550;9.108;2022-09-03T10:51:08;4.70;;;4.40;;
18360;SDS011;9308;48.550;9.108;2022-09-03T10:53:54;5.20;;;4.80;;
18360;SDS011;9308;48.550;9.108;2022-09-03T11:04:42;4.60;;;4.33;;
18360;SDS011;9308;48.550;9.108;2022-09-03T11:07:20;5.20;;;4.90;;
18360;SDS011;9308;48.550;9.108;2022-09-03T11:10:06;4.97;;;4.67;;
18360;SDS011;9308;48.550;9.108;2022-09-03T11:12:40;4.83;;;4.53;;
18360;SDS011;9308;48.550;9.108;2022-09-03T11:15:12;5.10;;;4.80;;
18360;SDS011;9308;48.550;9.108;2022-09-03T11:17:55;5.43;;;5.03;;
18360;SDS011;9308;48.550;9.108;2022-09-03T11:20:27;4.77;;;4.47;;
18360;SDS011;9308;48.550;9.108;2022-09-03T11:22:56;5.70;;;5.30;;
18360;SDS011;9308;48.550;9.108;2022-09-03T11:25:30;5.97;;;5.57;;
18360;SDS011;9308;48.550;9.108;2022-09-03T11:33:40;6.70;;;6.10;;
18360;SDS011;9308;48.550;9.108;2022-09-03T11:36:10;6.20;;;5.60;;
18360;SDS011;9308;48.550;9.108;2022-09-03T11:38:36;5.80;;;5.40;;
18360;SDS011;9308;48.550;9.108;2022-09-03T11:41:10;6.67;;;5.70;;
18360;SDS011;9308;48.550;9.108;2022-09-03T11:43:48;6.27;;;5.77;;
18360;SDS011;9308;48.550;9.108;2022-09-03T11:48:46;2.63;;;2.43;;
18360;SDS011;9308;48.550;9.108;2022-09-03T11:53:55;7.23;;;2.50;;
18360;SDS011;9308;48.550;9.108;2022-09-03T11:56:21;4.43;;;2.73;;
18360;SDS011;9308;48.550;9.108;2022-09-03T11:58:57;4.23;;;2.67;;
18360;SDS011;9308;48.550;9.108;2022-09-03T12:01:25;3.37;;;3.07;;
18360;SDS011;9308;48.550;9.108;2022-09-03T12:03:53;3.07;;;2.13;;
18360;SDS011;9308;48.550;9.108;2022-09-03T12:09:03;2.83;;;1.70;;
18360;SDS011;9308;48.550;9.108;2022-09-03T12:11:54;2.00;;;1.90;;
18360;SDS011;9308;48.550;9.108;2022-09-03T12:20:35;2.83;;;2.00;;
18360;SDS011;9308;48.550;9.108;2022-09-03T12:23:01;1.77;;;1.60;;
18360;SDS011;9308;48.550;9.108;2022-09-03T12:25:27;2.40;;;2.20;;
18360;SDS011;9308;48.550;9.108;2022-09-03T12:27:53;2.97;;;2.30;;
18360;SDS011;9308;48.550;9.108;2022-09-03T12:30:21;2.60;;;2.40;;
18360;SDS011;9308;48.550;9.108;2022-09-03T12:32:48;2.17;;;1.97;;
18360;SDS011;9308;48.550;9.108;2022-09-03T12:35:17;4.07;;;2.10;;
18360;SDS011;9308;48.550;9.108;2022-09-03T12:37:50;2.97;;;1.80;;
18360;SDS011;9308;48.550;9.108;2022-09-03T12:40:21;2.67;;;2.43;;
18360;SDS011;9308;48.550;9.108;2022-09-03T12:42:50;2.43;;;2.17;;
18360;SDS011;9308;48.550;9.108;2022-09-03T12:45:23;2.13;;;1.97;;
18360;SDS011;9308;48.550;9.108;2022-09-03T12:47:51;3.40;;;2.50;;
18360;SDS011;9308;48.550;9.108;2022-09-03T12:50:18;2.60;;;2.40;;
18360;SDS011;9308;48.550;9.108;2022-09-03T12:52:56;2.43;;;2.10;;
18360;SDS011;9308;48.550;9.108;2022-09-03T12:58:09;1.70;;;1.60;;
18360;SDS011;9308;48.550;9.108;2022-09-03T13:00:43;1.63;;;1.53;;
18360;SDS011;9308;48.550;9.108;2022-09-03T13:03:16;3.63;;;1.50;;
18360;SDS011;9308;48.550;9.108;2022-09-03T13:05:46;1.80;;;1.70;;
18360;SDS011;9308;48.550;9.108;2022-09-03T13:08:26;1.50;;;1.40;;
18360;SDS011;9308;48.550;9.108;2022-09-03T13:10:57;2.40;;;2.20;;
18360;SDS011;9308;48.550;9.108;2022-09-03T13:13:30;1.80;;;1.70;;
18360;SDS011;9308;48.550;9.108;2022-09-03T13:16:01;3.07;;;2.37;;
18360;SDS011;9308;48.550;9.108;2022-09-03T13:18:43;2.50;;;1.77;;
18360;SDS011;9308;48.550;9.108;2022-09-03T13:21:23;3.10;;;2.37;;
18360;SDS011;9308;48.550;9.108;2022-09-03T13:24:08;2.37;;;1.80;;
18360;SDS011;9308;48.550;9.108;2022-09-03T13:26:57;2.23;;;1.77;;
18360;SDS011;9308;48.550;9.108;2022-09-03T13:29:53;2.00;;;1.80;;
18360;SDS011;9308;48.550;9.108;2022-09-03T13:32:50;2.83;;;1.50;;
18360;SDS011;9308;48.550;9.108;2022-09-03T13:38:27;1.50;;;1.40;;
18360;SDS011;9308;48.550;9.108;2022-09-03T13:41:05;1.67;;;1.50;;
18360;SDS011;9308;48.550;9.108;2022-09-03T13:44:00;1.80;;;1.70;;
18360;SDS011;9308;48.550;9.108;2022-09-03T13:46:45;1.97;;;1.50;;
18360;SDS011;9308;48.550;9.108;2022-09-03T13:52:25;2.23;;;2.03;;
18360;SDS011;9308;48.550;9.108;2022-09-03T13:55:00;2.03;;;1.43;;
18360;SDS011;9308;48.550;9.108;2022-09-03T14:00:10;1.47;;;1.37;;
18360;SDS011;9308;48.550;9.108;2022-09-03T14:02:45;1.80;;;1.70;;
18360;SDS011;9308;48.550;9.108;2022-09-03T14:05:46;1.50;;;1.30;;
18360;SDS011;9308;48.550;9.108;2022-09-03T14:14:05;1.37;;;1.17;;
18360;SDS011;9308;48.550;9.108;2022-09-03T14:16:46;2.30;;;1.50;;
18360;SDS011;9308;48.550;9.108;2022-09-03T14:27:23;1.30;;;1.20;;
18360;SDS011;9308;48.550;9.108;2022-09-03T14:30:00;2.73;;;1.30;;
18360;SDS011;9308;48.550;9.108;2022-09-03T14:40:41;1.30;;;1.20;;
18360;SDS011;9308;48.550;9.108;2022-09-03T14:43:13;1.40;;;1.30;;
18360;SDS011;9308;48.550;9.108;2022-09-03T14:45:57;1.17;;;1.17;;
18360;SDS011;9308;48.550;9.108;2022-09-03T15:00:03;1.37;;;1.27;;
18360;SDS011;9308;48.550;9.108;2022-09-03T15:05:41;1.57;;;1.47;;
18360;SDS011;9308;48.550;9.108;2022-09-03T15:08:08;1.30;;;1.20;;
18360;SDS011;9308;48.550;9.108;2022-09-03T15:10:46;2.00;;;1.20;;
18360;SDS011;9308;48.550;9.108;2022-09-03T15:13:33;1.83;;;1.73;;
18360;SDS011;9308;48.550;9.108;2022-09-03T15:19:04;2.00;;;1.10;;
18360;SDS011;9308;48.550;9.108;2022-09-03T15:21:59;1.40;;;1.30;;
18360;SDS011;9308;48.550;9.108;2022-09-03T15:30:24;1.50;;;1.40;;
18360;SDS011;9308;48.550;9.108;2022-09-03T15:33:03;1.57;;;1.47;;
18360;SDS011;9308;48.550;9.108;2022-09-03T15:35:38;1.47;;;1.30;;
18360;SDS011;9308;48.550;9.108;2022-09-03T15:39:01;1.93;;;1.30;;
18360;SDS011;9308;48.550;9.108;2022-09-03T15:44:24;2.73;;;1.60;;
18360;SDS011;9308;48.550;9.108;2022-09-03T15:46:52;1.60;;;1.50;;
18360;SDS011;9308;48.550;9.108;2022-09-03T15:54:51;1.77;;;1.63;;
18360;SDS011;9308;48.550;9.108;2022-09-03T15:57:32;2.23;;;1.50;;
18360;SDS011;9308;48.550;9.108;2022-09-03T16:02:49;1.93;;;1.80;;
18360;SDS011;9308;48.550;9.108;2022-09-03T16:05:20;2.17;;;1.97;;
18360;SDS011;9308;48.550;9.108;2022-09-03T16:07:56;1.80;;;1.70;;
18360;SDS011;9308;48.550;9.108;2022-09-03T16:10:29;1.97;;;1.87;;
18360;SDS011;9308;48.550;9.108;2022-09-03T16:15:39;2.20;;;2.00;;
18360;SDS011;9308;48.550;9.108;2022-09-03T16:20:59;1.87;;;1.77;;
18360;SDS011;9308;48.550;9.108;2022-09-03T16:26:09;2.10;;;1.90;;
18360;SDS011;9308;48.550;9.108;2022-09-03T16:28:51;1.80;;;1.70;;
18360;SDS011;9308;48.550;9.108;2022-09-03T16:39:51;1.90;;;1.80;;
18360;SDS011;9308;48.550;9.108;2022-09-03T16:45:13;2.53;;;2.30;;
18360;SDS011;9308;48.550;9.108;2022-09-03T16:50:39;2.73;;;2.53;;
18360;SDS011;9308;48.550;9.108;2022-09-03T16:53:22;4.07;;;2.17;;
18360;SDS011;9308;48.550;9.108;2022-09-03T16:56:45;2.37;;;2.27;;
18360;SDS011;9308;48.550;9.108;2022-09-03T17:15:52;5.17;;;2.20;;
18360;SDS011;9308;48.550;9.108;2022-09-03T17:18:33;2.77;;;1.70;;
18360;SDS011;9308;48.550;9.108;2022-09-03T17:26:44;2.47;;;2.00;;
18360;SDS011;9308;48.550;9.108;2022-09-03T17:29:30;2.47;;;2.27;;
18360;SDS011;9308;48.550;9.108;2022-09-03T17:41:03;4.00;;;2.50;;
18360;SDS011;9308;48.550;9.108;2022-09-03T17:49:40;2.40;;;2.20;;
18360;SDS011;9308;48.550;9.108;2022-09-03T17:52:23;4.83;;;2.40;;
18360;SDS011;9308;48.550;9.108;2022-09-03T17:55:01;2.60;;;2.40;;
18360;SDS011;9308;48.550;9.108;2022-09-03T17:57:38;2.90;;;2.70;;
18360;SDS011;9308;48.550;9.108;2022-09-03T18:00:10;2.77;;;2.57;;
18360;SDS011;9308;48.550;9.108;2022-09-03T18:02:55;3.03;;;2.83;;
18360;SDS011;9308;48.550;9.108;2022-09-03T18:11:26;3.17;;;2.97;;
18360;SDS011;9308;48.550;9.108;2022-09-03T18:16:31;5.90;;;5.13;;
18360;SDS011;9308;48.550;9.108;2022-09-03T18:19:46;5.90;;;5.20;;
18360;SDS011;9308;48.550;9.108;2022-09-03T18:21:53;5.70;;;5.20;;
18360;SDS011;9308;48.550;9.108;2022-09-03T18:24:42;4.90;;;4.40;;
18360;SDS011;9308;48.550;9.108;2022-09-03T18:28:05;3.83;;;3.53;;
18360;SDS011;9308;48.550;9.108;2022-09-03T18:30:44;8.20;;;6.57;;
18360;SDS011;9308;48.550;9.108;2022-09-03T18:33:28;9.73;;;7.47;;
18360;SDS011;9308;48.550;9.108;2022-09-03T18:36:12;8.10;;;6.97;;
18360;SDS011;9308;48.550;9.108;2022-09-03T18:38:57;10.00;;;8.00;;
18360;SDS011;9308;48.550;9.108;2022-09-03T18:45:00;8.00;;;7.20;;
18360;SDS011;9308;48.550;9.108;2022-09-03T18:47:53;7.83;;;6.30;;
18360;SDS011;9308;48.550;9.108;2022-09-03T18:51:13;6.13;;;5.50;;
18360;SDS011;9308;48.550;9.108;2022-09-03T18:54:13;5.57;;;4.90;;
18360;SDS011;9308;48.550;9.108;2022-09-03T18:57:20;5.07;;;4.63;;
18360;SDS011;9308;48.550;9.108;2022-09-03T19:00:09;4.50;;;3.97;;
18360;SDS011;9308;48.550;9.108;2022-09-03T19:12:37;2.70;;;2.50;;
18360;SDS011;9308;48.550;9.108;2022-09-03T19:15:30;2.80;;;2.60;;
18360;SDS011;9308;48.550;9.108;2022-09-03T19:18:27;2.93;;;2.73;;
18360;SDS011;9308;48.550;9.108;2022-09-03T19:21:58;3.27;;;2.97;;
18360;SDS011;9308;48.550;9.108;2022-09-03T19:25:05;2.97;;;2.77;;
18360;SDS011;9308;48.550;9.108;2022-09-03T19:38:23;3.20;;;2.63;;
18360;SDS011;9308;48.550;9.108;2022-09-03T19:41:11;4.07;;;2.87;;
18360;SDS011;9308;48.550;9.108;2022-09-03T19:44:24;3.10;;;2.90;;
18360;SDS011;9308;48.550;9.108;2022-09-03T19:47:21;3.50;;;3.30;;
18360;SDS011;9308;48.550;9.108;2022-09-03T19:50:36;2.50;;;2.30;;
18360;SDS011;9308;48.550;9.108;2022-09-03T19:53:26;2.80;;;2.60;;
18360;SDS011;9308;48.550;9.108;2022-09-03T19:56:18;3.07;;;2.80;;
18360;SDS011;9308;48.550;9.108;2022-09-03T19:59:16;3.43;;;3.10;;
18360;SDS011;9308;48.550;9.108;2022-09-03T20:02:02;2.87;;;2.63;;
18360;SDS011;9308;48.550;9.108;2022-09-03T20:04:50;3.13;;;2.93;;
18360;SDS011;9308;48.550;9.108;2022-09-03T20:07:41;2.73;;;2.53;;
18360;SDS011;9308;48.550;9.108;2022-09-03T20:10:25;2.83;;;2.63;;
18360;SDS011;9308;48.550;9.108;2022-09-03T20:13:00;2.83;;;2.63;;
18360;SDS011;9308;48.550;9.108;2022-09-03T20:15:34;3.60;;;3.30;;
18360;SDS011;9308;48.550;9.108;2022-09-03T20:21:04;2.57;;;2.37;;